• Join FlightAware (Why Join?)
  • Login
  • US Flag 
08:25PM EDT


 

Airport Tracker/Info


-or-


 

Live Flight TrackerFlight Track Log ✈ AAL2345 ✈ 21-Apr-2013 ✈ KORD - KDFW

Flight Track Log - Related Links

Times and Time Zones

All times are in EDT time to prevent confusion due to time zone crossing. See the AAL2345 flight status page for this flight to view local times or setup timezone preferences in your user account.

Time Position Orientation Groundspeed Altitude Reporting Facility
EDT Latitude Longitude Course Direction KTS MPH feet Rate Location/Type
06:51PM 41.9333 -87.9167 207° Southwest 175 201 2,200  Level Chicago TRACON
06:52PM 41.8833 -87.9667 217° Southwest 239 275 4,600 2,460 Climbing Chicago TRACON
06:53PM 41.8092 -87.9828 189° South 264 304 7,700 2,880 Climbing Chicago Center
06:54PM 41.6713 -88.2732 197° South  Level Estimated
06:54PM 41.7386 -88.0206 202° Southwest 272 313 10,700  Level Chicago Center
06:55PM 41.5749 -88.2232 159° South  Level FlightAware Approximate
06:55PM 41.6636 -88.0522 198° South 282 325 13,700  Level Chicago Center
06:56PM 41.4977 -88.3150 207° Southwest  Level Estimated
06:56PM 41.5764 -88.0956 200° South 291 335 16,600  Level Chicago Center
06:57PM 41.4969 -88.1358 201° Southwest 299 344 18,600 1,920 Climbing Chicago Center
06:58PM 41.4169 -88.1739 200° South 316 364 20,600 1,620 Climbing Chicago Center
06:59PM 41.3328 -88.2122 199° South 326 375 22,000 1,080 Climbing Chicago Center
07:00PM 41.2369 -88.2558 199° South 366 421 22,900 660 Climbing Chicago Center
07:02PM 41.0164 -88.3542 199° South 426 490 24,000 360 Climbing Kansas City Center
07:03PM 40.9000 -88.4072 199° South 438 504 24,000  Level Kansas City Center
07:04PM 40.7839 -88.4581 198° South 439 505 24,000  Level Kansas City Center
07:05PM 40.6669 -88.5100 199° South 441 507 24,000  Level Kansas City Center
07:06PM 40.5264 -88.5725 199° South 443 510 24,000  Level Kansas City Center
07:07PM 40.4103 -88.6247 199° South 441 507 24,000  Level Kansas City Center
07:08PM 40.2986 -88.6842 202° Southwest 438 504 24,000  Level Kansas City Center
07:09PM 40.2036 -88.7811 218° Southwest 433 498 24,000  Level Kansas City Center
07:10PM 40.1092 -88.8794 219° Southwest 432 497 24,000  Level Kansas City Center
07:11PM 40.0147 -88.9767 218° Southwest 431 496 24,000  Level Kansas City Center
07:12PM 39.9208 -89.0722 218° Southwest 429 494 24,000  Level Kansas City Center
07:13PM 39.8075 -89.1878 218° Southwest 429 494 24,000  Level Kansas City Center
07:14PM 39.7122 -89.2842 218° Southwest 432 497 24,000  Level Kansas City Center
07:15PM 39.6253 -89.3722 218° Southwest 432 497 24,000  Level Kansas City Center
07:16PM 39.5308 -89.4678 218° Southwest 432 497 24,000  Level Kansas City Center
07:17PM 39.4181 -89.5817 218° Southwest 429 494 24,000  Level Kansas City Center
07:19PM 39.3233 -89.6758 218° Southwest 429 494 24,000  Level Kansas City Center
07:20PM 39.2297 -89.7697 218° Southwest 428 493 24,000  Level Kansas City Center
07:21PM 39.1272 -89.8731 218° Southwest 428 493 24,000  Level Kansas City Center
07:22PM 39.0250 -89.9739 217° Southwest 431 496 24,000  Level Kansas City Center
07:23PM 38.9536 -90.0614 224° Southwest 430 495 24,000  Level Kansas City Center
07:24PM 38.8578 -90.1928 227° Southwest 419 482 24,000  Level Kansas City Center
07:25PM 38.7758 -90.3047 227° Southwest 423 487 24,000  Level Kansas City Center
07:26PM 38.6961 -90.4178 228° Southwest 428 493 24,000  Level Kansas City Center
07:27PM 38.6125 -90.5269 226° Southwest 427 491 24,000  Level Kansas City Center
07:28PM 38.5317 -90.6358 227° Southwest 423 487 24,000  Level Kansas City Center
07:29PM 38.4456 -90.7514 226° Southwest 421 484 24,000  Level Kansas City Center
07:30PM 38.3639 -90.8614 227° Southwest 427 491 24,000  Level Kansas City Center
07:31PM 38.2831 -90.9692 226° Southwest 424 488 24,000  Level Kansas City Center
07:32PM 38.2006 -91.0772 226° Southwest 423 487 24,000  Level Kansas City Center
07:33PM 38.1042 -91.2028 226° Southwest 425 489 24,000  Level Kansas City Center
07:34PM 38.0225 -91.3119 226° Southwest 425 489 24,000  Level Kansas City Center
07:35PM 37.9400 -91.4228 227° Southwest 427 491 24,000  Level Kansas City Center
07:36PM 37.8578 -91.5317 226° Southwest 425 489 24,000  Level Kansas City Center
07:37PM 37.7761 -91.6389 226° Southwest 423 487 24,000  Level Kansas City Center
07:38PM 37.6778 -91.7678 226° Southwest 421 484 24,000  Level Kansas City Center
07:39PM 37.5944 -91.8758 226° Southwest 423 487 24,000  Level Kansas City Center
07:40PM 37.5100 -91.9858 226° Southwest 428 493 24,000  Level Kansas City Center
07:41PM 37.4225 -92.0872 223° Southwest 426 490 24,000  Level Kansas City Center
07:42PM 37.3322 -92.1869 221° Southwest 427 491 24,000  Level Kansas City Center
07:43PM 37.2428 -92.2861 221° Southwest 426 490 24,000  Level Kansas City Center
07:44PM 37.1528 -92.3858 221° Southwest 427 491 24,000  Level Kansas City Center
07:45PM 37.0636 -92.4850 222° Southwest 426 490 24,000  Level Kansas City Center
07:46PM 36.9558 -92.6028 221° Southwest 426 490 24,000  Level Kansas City Center
07:47PM 36.8656 -92.7006 221° Southwest 427 491 24,000  Level Kansas City Center
07:48PM 36.7764 -92.7986 221° Southwest 426 490 24,000  Level Kansas City Center
07:50PM 36.6861 -92.8961 221° Southwest 427 491 24,000  Level Kansas City Center
07:51PM 36.5950 -92.9928 220° Southwest 429 494 24,000  Level Kansas City Center
07:52PM 36.5081 -93.0858 221° Southwest 428 493 24,000  Level Kansas City Center
07:53PM 36.4175 -93.1847 221° Southwest 432 497 24,000  Level Kansas City Center
07:54PM 36.3031 -93.3081 221° Southwest 432 497 24,000  Level Memphis Center
07:55PM 36.2133 -93.4028 220° Southwest 432 497 24,000  Level Memphis Center
07:56PM 36.1211 -93.4994 220° Southwest 437 503 24,000  Level Memphis Center
07:57PM 36.0333 -93.5961 222° Southwest 437 503 24,000  Level Memphis Center
07:58PM 35.9411 -93.6900 220° Southwest 437 503 24,000  Level Memphis Center
07:59PM 35.8511 -93.7836 220° Southwest 437 503 24,000  Level Memphis Center
08:00PM 35.7692 -93.8725 221° Southwest 437 503 24,000  Level Memphis Center
08:01PM 35.6789 -93.9683 221° Southwest 437 503 24,000  Level Memphis Center
08:02PM 35.5886 -94.0614 220° Southwest 432 497 24,000  Level Memphis Center
08:03PM 35.4983 -94.1542 220° Southwest 432 497 24,000  Level Memphis Center
08:04PM 35.4078 -94.2494 221° Southwest 432 497 24,000  Level Memphis Center
08:05PM 35.2639 -94.4083 222° Southwest 416 479 24,000  Level Fort Worth Center
08:06PM 35.1725 -94.5081 222° Southwest 421 484 24,000  Level Fort Worth Center
08:07PM 35.0828 -94.6050 221° Southwest 433 498 24,000  Level Fort Worth Center
08:08PM 34.9933 -94.7017 222° Southwest 433 498 24,000  Level Fort Worth Center
08:09PM 34.9014 -94.8008 222° Southwest 433 498 24,000  Level Fort Worth Center
08:10PM 34.8219 -94.8867 222° Southwest 433 498 24,000  Level Fort Worth Center
08:11PM 34.7300 -94.9881 222° Southwest 439 505 24,000  Level Fort Worth Center
08:12PM 34.6442 -95.0786 221° Southwest 434 499 24,000  Level Fort Worth Center
08:13PM 34.5628 -95.1919 229° Southwest 434 499 24,000  Level Fort Worth Center
08:14PM 34.4853 -95.2972 228° Southwest 434 499 24,000  Level Fort Worth Center
08:15PM 34.3994 -95.4025 225° Southwest 429 494 24,000  Level Fort Worth Center
08:16PM 34.3194 -95.5075 227° Southwest 429 494 24,000  Level Fort Worth Center
08:17PM 34.2356 -95.6097 225° Southwest 429 494 24,000 -120 Level Fort Worth Center
08:18PM 34.1556 -95.7119 227° Southwest 429 494 23,800 -600 Descending Fort Worth Center
08:19PM 34.0756 -95.8136 226° Southwest 434 499 22,800 -1,200 Descending Fort Worth Center
08:20PM 33.9997 -95.9153 228° Southwest 416 479 21,400 -1,680 Descending Fort Worth Center
08:21PM 33.9194 -96.0169 226° Southwest 416 479 19,500 -2,100 Descending Fort Worth Center
08:22PM 33.8389 -96.1131 225° Southwest 416 479 17,300 -2,700 Descending Fort Worth Center
08:23PM 33.7564 -96.2142 226° Southwest 399 459 14,200 -2,640 Descending Fort Worth Center
08:24PM 33.6864 -96.3075 228° Southwest 386 444 12,100 -1,620 Descending Fort Worth Center
08:25PM 33.6203 -96.3883 226° Southwest 358 412 11,000 -1,080 Descending Fort Worth Center
08:26PM 33.5625 -96.4561 224° Southwest 323 372 10,000 -900 Descending Fort Worth Center
08:27PM 33.5108 -96.5242 228° Southwest 294 338 9,200 -540 Descending Fort Worth Center
08:28PM 33.4589 -96.5867 225° Southwest 275 316 9,000 -300 Descending Fort Worth Center
08:29PM 33.4031 -96.6469 222° Southwest 275 316 8,600 -960 Descending Fort Worth Center
08:30PM 33.3511 -96.6997 220° Southwest 275 316 7,100 -1,320 Descending Fort Worth Center
08:31PM 33.3036 -96.7747 233° Southwest 270 311 6,000 -600 Descending Fort Worth Center
08:32PM 33.2811 -96.8642 253° West 271 312 5,900 -780 Descending Fort Worth Center
08:33PM 33.2519 -96.9389 245° Southwest 271 312 4,500 -1,020 Descending Fort Worth Center
08:34PM 33.1981 -96.9839 215° Southwest 236 272 3,900 -300 Descending Fort Worth Center
08:35PM 33.1458 -97.0164 208° Southwest 223 257 3,900  Level Fort Worth Center
08:36PM 33.0958 -97.0292 192° South 210 242 3,900 -180 Level Fort Worth Center
08:37PM 33.0833 -97.0167 140° Southeast 176 203 3,700 -720 Descending Dallas / Fort Worth TRACON